Time;durP1;ratioP1;P1;durP2;ratioP2;P2;SDS_P1;SDS_P2;PMS_P1;PMS_P2;Temp;Humidity;BMP_temperature;BMP_pressure;BME280_temperature;BME280_humidity;BME280_pressure;Samples;Min_cycle;Max_cycle;Signal;HPM_P1;HPM_P2
2022/07/16 00:03:25;;;;;;;1999.90;999.90;;;15.00;99.90;;;;;;5069798;28;20983;-79
2022/07/16 00:05:52;;;;;;;1999.90;999.90;;;15.10;99.90;;;;;;5053758;28;20474;-78
2022/07/16 00:08:18;;;;;;;1999.90;999.90;;;15.10;99.90;;;;;;5050893;28;20470;-75
2022/07/16 00:10:45;;;;;;;1999.90;999.90;;;15.20;99.90;;;;;;5051136;28;20462;-79
2022/07/16 00:13:13;;;;;;;1999.90;999.90;;;15.20;99.90;;;;;;5048888;28;20458;-76
2022/07/16 00:15:40;;;;;;;1999.90;999.90;;;15.20;99.90;;;;;;5051220;28;20489;-76
2022/07/16 00:20:51;;;;;;;1999.90;999.90;;;15.20;99.90;;;;;;5049663;28;21014;-76
2022/07/16 00:23:17;;;;;;;1999.90;999.90;;;15.30;99.90;;;;;;5050694;28;20454;-77
2022/07/16 00:25:44;;;;;;;1999.90;999.90;;;15.30;99.90;;;;;;5049609;28;20838;-76
2022/07/16 00:28:10;;;;;;;1999.90;999.90;;;15.30;99.90;;;;;;5050948;28;20454;-76
2022/07/16 00:30:38;;;;;;;1999.90;999.90;;;15.40;99.90;;;;;;5048395;28;20463;-76
2022/07/16 00:33:05;;;;;;;1999.90;999.90;;;15.40;99.90;;;;;;5051411;28;20458;-74
2022/07/16 00:35:31;;;;;;;1999.90;999.90;;;15.50;99.90;;;;;;5048901;28;21215;-76
2022/07/16 00:37:58;;;;;;;1999.90;999.90;;;15.70;99.90;;;;;;5050572;28;20462;-79
2022/07/16 00:40:25;;;;;;;1999.90;999.90;;;15.80;99.90;;;;;;5048904;28;20463;-76
2022/07/16 00:42:51;;;;;;;1999.90;999.90;;;15.90;99.90;;;;;;5051178;28;20859;-75
2022/07/16 00:45:18;;;;;;;1999.90;999.90;;;15.90;99.90;;;;;;5050411;28;20474;-76
2022/07/16 00:47:46;;;;;;;1999.90;999.90;;;16.10;99.90;;;;;;5048732;28;20474;-76
2022/07/16 00:50:12;;;;;;;1999.90;999.90;;;16.20;99.90;;;;;;5049554;28;20955;-76
2022/07/16 00:52:39;;;;;;;1999.90;999.90;;;16.30;99.90;;;;;;5049280;28;20478;-75
2022/07/16 00:55:07;;;;;;;1999.90;999.90;;;16.30;99.90;;;;;;5050689;28;20493;-76
2022/07/16 00:57:33;;;;;;;1999.90;999.90;;;16.30;99.90;;;;;;5049035;28;21230;-75
2022/07/16 01:00:00;;;;;;;1999.90;999.90;;;16.20;99.90;;;;;;5049558;28;20515;-77
2022/07/16 01:02:26;;;;;;;1999.90;999.90;;;16.20;99.90;;;;;;5046601;28;20954;-75
2022/07/16 01:04:54;;;;;;;1999.90;999.90;;;16.20;99.90;;;;;;5045395;28;20483;-76
2022/07/16 01:07:22;;;;;;;1999.90;999.90;;;16.20;99.90;;;;;;5049284;28;20454;-75
2022/07/16 01:09:49;;;;;;;1999.90;999.90;;;16.30;99.90;;;;;;5048534;28;20494;-76
2022/07/16 01:12:17;;;;;;;1999.90;999.90;;;16.20;99.90;;;;;;5048339;28;20881;-80
2022/07/16 01:14:45;;;;;;;1999.90;999.90;;;16.30;99.90;;;;;;5047019;28;20532;-76
2022/07/16 01:17:12;;;;;;;1999.90;999.90;;;16.30;99.90;;;;;;5044772;28;21000;-82
2022/07/16 01:19:38;;;;;;;1999.90;999.90;;;16.30;99.90;;;;;;5047685;28;20636;-76
2022/07/16 01:22:06;;;;;;;1999.90;999.90;;;16.20;99.90;;;;;;5042886;28;20516;-76
2022/07/16 01:24:34;;;;;;;1999.90;999.90;;;16.20;99.90;;;;;;5047425;28;20552;-76
2022/07/16 01:27:01;;;;;;;1999.90;999.90;;;16.20;99.90;;;;;;5048311;28;20454;-75
2022/07/16 01:29:27;;;;;;;1999.90;999.90;;;16.20;99.90;;;;;;5045528;28;20572;-76
2022/07/16 01:31:54;;;;;;;1999.90;999.90;;;16.20;99.90;;;;;;5049343;28;20459;-79
2022/07/16 01:34:26;;;;;;;1999.90;999.90;;;16.10;99.90;;;;;;5047803;28;20532;-76
2022/07/16 01:36:55;;;;;;;1999.90;999.90;;;16.20;99.90;;;;;;5048143;28;20509;-76
2022/07/16 01:39:22;;;;;;;1999.90;999.90;;;16.20;99.90;;;;;;5048477;28;20454;-75
2022/07/16 01:41:54;;;;;;;1999.90;999.90;;;16.20;99.90;;;;;;5047935;28;20458;-80
2022/07/16 01:44:21;;;;;;;1999.90;999.90;;;16.20;99.90;;;;;;5045615;28;20551;-77
2022/07/16 01:46:48;;;;;;;1999.90;999.90;;;16.30;99.90;;;;;;5047798;28;20887;-76
2022/07/16 01:49:14;;;;;;;1999.90;999.90;;;16.30;99.90;;;;;;5048332;28;20466;-76
2022/07/16 01:51:41;;;;;;;1999.90;999.90;;;16.30;99.90;;;;;;5048271;28;20760;-78
2022/07/16 01:54:08;;;;;;;1999.90;999.90;;;16.30;99.90;;;;;;5048313;28;20462;-76
2022/07/16 01:56:34;;;;;;;1999.90;999.90;;;16.20;99.90;;;;;;5045646;28;21120;-75
2022/07/16 01:59:02;;;;;;;1999.90;999.90;;;16.20;99.90;;;;;;5048102;28;20458;-75
2022/07/16 02:01:29;;;;;;;1999.90;999.90;;;16.20;99.90;;;;;;5046833;28;20459;-74
2022/07/16 02:03:55;;;;;;;1999.90;999.90;;;16.30;99.90;;;;;;5048082;28;20946;-76
2022/07/16 02:06:22;;;;;;;1999.90;999.90;;;16.30;99.90;;;;;;5045057;28;20474;-75
2022/07/16 02:08:49;;;;;;;1999.90;999.90;;;16.30;99.90;;;;;;5046248;28;20881;-76
2022/07/16 02:11:16;;;;;;;1999.90;999.90;;;16.30;99.90;;;;;;5047267;28;20458;-76
2022/07/16 02:13:43;;;;;;;1999.90;999.90;;;16.40;99.90;;;;;;5047970;28;20466;-77
2022/07/16 02:16:11;;;;;;;1999.90;999.90;;;16.50;99.90;;;;;;5048012;28;20496;-78
2022/07/16 02:18:38;;;;;;;1999.90;999.90;;;16.60;99.90;;;;;;5048700;28;20477;-77
2022/07/16 02:21:05;;;;;;;1999.90;999.90;;;16.60;99.90;;;;;;5048923;28;20512;-75
2022/07/16 02:23:32;;;;;;;1999.90;999.90;;;16.70;99.90;;;;;;5046774;28;20537;-76
2022/07/16 02:25:59;;;;;;;1999.90;999.90;;;16.70;99.90;;;;;;5048243;28;20470;-75
2022/07/16 02:28:25;;;;;;;1999.90;999.90;;;16.80;99.90;;;;;;5047473;28;20513;-75
2022/07/16 02:30:52;;;;;;;1999.90;999.90;;;16.90;99.90;;;;;;5046042;28;20467;-79
2022/07/16 02:33:23;;;;;;;1999.90;999.90;;;16.90;99.90;;;;;;5047296;28;20462;-76
2022/07/16 02:35:49;;;;;;;1999.90;999.90;;;16.90;99.90;;;;;;5045699;28;20473;-75
2022/07/16 02:38:17;;;;;;;1999.90;999.90;;;16.90;99.90;;;;;;5049518;28;20826;-75
2022/07/16 02:40:44;;;;;;;1999.90;999.90;;;17.00;99.90;;;;;;5051244;28;20451;-76
2022/07/16 02:43:12;;;;;;;1999.90;999.90;;;16.90;99.90;;;;;;5050395;28;20520;-76
2022/07/16 02:45:41;;;;;;;1999.90;999.90;;;17.00;99.90;;;;;;5048378;28;20482;-76
2022/07/16 02:48:09;;;;;;;1999.90;999.90;;;17.00;99.90;;;;;;5052205;28;20454;-77
2022/07/16 02:50:37;;;;;;;1999.90;999.90;;;17.00;99.90;;;;;;5051497;28;21172;-76
2022/07/16 02:53:04;;;;;;;1999.90;999.90;;;17.00;99.90;;;;;;5050394;28;20520;-78
2022/07/16 02:55:30;;;;;;;1999.90;999.90;;;17.10;99.90;;;;;;5050490;28;21001;-76
2022/07/16 02:57:57;;;;;;;1999.90;999.90;;;17.10;99.90;;;;;;5053025;28;20548;-75
2022/07/16 03:00:25;;;;;;;1999.90;999.90;;;17.10;99.90;;;;;;5048154;28;20466;-77
2022/07/16 03:02:51;;;;;;;1999.90;999.90;;;17.20;99.90;;;;;;5049279;28;20548;-75
2022/07/16 03:05:18;;;;;;;1999.90;999.90;;;17.00;99.90;;;;;;5049679;28;20560;-75
2022/07/16 03:07:46;;;;;;;1999.90;999.90;;;17.00;99.90;;;;;;5050979;28;20520;-76
2022/07/16 03:10:14;;;;;;;1999.90;999.90;;;17.00;99.90;;;;;;5049825;28;20458;-76
2022/07/16 03:12:41;;;;;;;1999.90;999.90;;;17.00;99.90;;;;;;5051820;28;20465;-79
2022/07/16 03:15:11;;;;;;;1999.90;999.90;;;17.10;99.90;;;;;;5050171;28;20482;-76
2022/07/16 03:17:37;;;;;;;1999.90;999.90;;;17.10;99.90;;;;;;5051844;28;20474;-75
2022/07/16 03:20:05;;;;;;;1999.90;999.90;;;17.00;99.90;;;;;;5049949;28;20833;-76
2022/07/16 03:22:31;;;;;;;1999.90;999.90;;;17.00;99.90;;;;;;5046450;28;20629;-76
2022/07/16 03:24:59;;;;;;;1999.90;999.90;;;17.00;99.90;;;;;;5049353;28;20998;-78
2022/07/16 03:27:26;;;;;;;1999.90;999.90;;;17.00;99.90;;;;;;5051815;28;20454;-76
2022/07/16 03:29:52;;;;;;;1999.90;999.90;;;17.00;99.90;;;;;;5048531;28;20466;-78
2022/07/16 03:32:19;;;;;;;1999.90;999.90;;;17.00;99.90;;;;;;5049540;28;20950;-75
2022/07/16 03:34:46;;;;;;;1999.90;999.90;;;16.90;99.90;;;;;;5050681;28;20489;-76
2022/07/16 03:37:12;;;;;;;1999.90;999.90;;;16.90;99.90;;;;;;5051504;28;20512;-73
2022/07/16 03:39:39;;;;;;;1999.90;999.90;;;17.00;99.90;;;;;;5049082;28;20462;-76
2022/07/16 03:42:07;;;;;;;1999.90;999.90;;;17.00;99.90;;;;;;5049521;28;20824;-76
2022/07/16 03:44:34;;;;;;;1999.90;999.90;;;16.90;99.90;;;;;;5048234;28;20531;-76
2022/07/16 03:47:00;;;;;;;1999.90;999.90;;;17.00;99.90;;;;;;5050024;28;20908;-74
2022/07/16 03:49:27;;;;;;;1999.90;999.90;;;17.10;99.90;;;;;;5045754;28;20462;-74
2022/07/16 03:51:54;;;;;;;1999.90;999.90;;;17.10;99.90;;;;;;5048162;28;20462;-78
2022/07/16 03:54:20;;;;;;;1999.90;999.90;;;17.10;99.90;;;;;;5050019;28;20539;-77
2022/07/16 03:56:47;;;;;;;1999.90;999.90;;;17.10;99.90;;;;;;5050992;28;20470;-76
2022/07/16 03:59:15;;;;;;;1999.90;999.90;;;17.10;99.90;;;;;;5050384;28;20966;-76
2022/07/16 04:01:41;;;;;;;1999.90;999.90;;;17.20;99.90;;;;;;5047388;28;20471;-76
2022/07/16 04:04:08;;;;;;;1999.90;999.90;;;17.10;99.90;;;;;;5045636;28;20463;-76
2022/07/16 04:06:35;;;;;;;1999.90;999.90;;;17.10;99.90;;;;;;5049392;28;20462;-75
2022/07/16 04:09:02;;;;;;;1999.90;999.90;;;17.10;99.90;;;;;;5051064;28;20463;-78
2022/07/16 04:11:28;;;;;;;1999.90;999.90;;;17.10;99.90;;;;;;5050505;28;20469;-77
2022/07/16 04:13:55;;;;;;;1999.90;999.90;;;17.20;99.90;;;;;;5047023;28;20458;-75
2022/07/16 04:16:23;;;;;;;1999.90;999.90;;;17.20;99.90;;;;;;5050005;28;20540;-78
2022/07/16 04:18:49;;;;;;;1999.90;999.90;;;17.20;99.90;;;;;;5047140;28;20470;-76
2022/07/16 04:21:16;;;;;;;1999.90;999.90;;;17.20;99.90;;;;;;5047701;28;20508;-77
2022/07/16 04:23:43;;;;;;;1999.90;999.90;;;17.10;99.90;;;;;;5046993;28;20511;-76
2022/07/16 04:26:09;;;;;;;1999.90;999.90;;;17.20;99.90;;;;;;5050217;28;20482;-76
2022/07/16 04:28:36;;;;;;;1999.90;999.90;;;17.20;99.90;;;;;;5046083;28;20462;-76
2022/07/16 04:31:02;;;;;;;1999.90;999.90;;;17.10;99.90;;;;;;5048063;28;20546;-79
2022/07/16 04:33:30;;;;;;;1999.90;999.90;;;17.20;99.90;;;;;;5048276;28;20496;-77
2022/07/16 04:35:57;;;;;;;1999.90;999.90;;;17.30;99.90;;;;;;5048442;28;20486;-78
2022/07/16 04:38:23;;;;;;;1999.90;999.90;;;17.30;99.90;;;;;;5047397;28;20567;-75
2022/07/16 04:40:50;;;;;;;1999.90;999.90;;;17.30;99.90;;;;;;5047922;28;20470;-75
2022/07/16 04:43:17;;;;;;;1999.90;999.90;;;17.30;99.90;;;;;;5045352;28;20829;-75
2022/07/16 04:45:43;;;;;;;1999.90;999.90;;;17.30;99.90;;;;;;5047118;28;20615;-76
2022/07/16 04:48:10;;;;;;;1999.90;999.90;;;17.30;99.90;;;;;;5048799;28;20454;-77
2022/07/16 04:50:38;;;;;;;1999.90;999.90;;;17.30;99.90;;;;;;5042450;28;20455;-78
2022/07/16 04:53:04;;;;;;;1999.90;999.90;;;17.20;99.90;;;;;;5045690;28;20485;-76
2022/07/16 04:55:31;;;;;;;1999.90;999.90;;;17.30;99.90;;;;;;5044279;28;20494;-77
2022/07/16 04:57:57;;;;;;;1999.90;999.90;;;17.40;99.90;;;;;;5047696;28;20486;-76
2022/07/16 05:00:24;;;;;;;1999.90;999.90;;;17.40;99.90;;;;;;5049658;28;20877;-75
2022/07/16 05:02:59;;;;;;;1999.90;999.90;;;17.60;99.90;;;;;;5046818;28;20513;-79
2022/07/16 05:05:31;;;;;;;1999.90;999.90;;;17.50;99.90;;;;;;5046210;28;20535;-76
2022/07/16 05:07:59;;;;;;;1999.90;999.90;;;17.50;99.90;;;;;;5048139;28;20493;-77
2022/07/16 05:10:26;;;;;;;1999.90;999.90;;;17.40;99.90;;;;;;5044974;28;20516;-76
2022/07/16 05:12:53;;;;;;;1999.90;999.90;;;17.30;99.90;;;;;;5043772;28;20470;-76
2022/07/16 05:15:20;;;;;;;1999.90;999.90;;;17.20;99.90;;;;;;5046548;28;20470;-76
2022/07/16 05:17:47;;;;;;;1999.90;999.90;;;17.30;99.90;;;;;;5049086;28;20831;-76
2022/07/16 05:20:14;;;;;;;1999.90;999.90;;;17.30;99.90;;;;;;5046421;28;20462;-76
2022/07/16 05:22:40;;;;;;;1999.90;999.90;;;17.40;99.90;;;;;;5046816;28;21024;-76
2022/07/16 05:25:10;;;;;;;1999.90;999.90;;;17.40;99.90;;;;;;5045182;28;20482;-76
2022/07/16 05:27:37;;;;;;;1999.90;999.90;;;17.60;99.90;;;;;;5046719;28;20516;-75
2022/07/16 05:30:05;;;;;;;1999.90;999.90;;;17.40;99.90;;;;;;5048538;28;20454;-76
2022/07/16 05:32:32;;;;;;;1999.90;999.90;;;17.40;99.90;;;;;;5043612;28;20470;-76
2022/07/16 05:34:59;;;;;;;1999.90;999.90;;;17.50;99.90;;;;;;5043723;28;20478;-76
2022/07/16 05:37:25;;;;;;;1999.90;999.90;;;17.60;99.90;;;;;;5047969;28;20933;-81
2022/07/16 05:39:52;;;;;;;1999.90;999.90;;;17.70;99.90;;;;;;5043789;28;20513;-77
2022/07/16 05:42:20;;;;;;;1999.90;999.90;;;17.70;99.90;;;;;;5046102;28;20519;-76
2022/07/16 05:44:46;;;;;;;1999.90;999.90;;;17.70;99.90;;;;;;5043276;28;20630;-79
2022/07/16 05:47:13;;;;;;;1999.90;999.90;;;17.80;99.90;;;;;;5049575;28;20459;-79
2022/07/16 05:49:39;;;;;;;1999.90;999.90;;;17.80;99.90;;;;;;5042119;28;20509;-75
2022/07/16 05:52:06;;;;;;;1999.90;999.90;;;17.80;99.90;;;;;;5048050;28;20593;-75
2022/07/16 05:54:33;;;;;;;1999.90;999.90;;;17.70;99.90;;;;;;5049608;28;20846;-77
2022/07/16 05:56:59;;;;;;;1999.90;999.90;;;17.70;99.90;;;;;;5066636;23;20489;-73
2022/07/16 05:59:27;;;;;;;1999.90;999.90;;;18.00;99.90;;;;;;5049068;28;20462;-73
2022/07/16 06:01:54;;;;;;;1999.90;999.90;;;18.20;99.90;;;;;;5045221;28;20466;-72
2022/07/16 06:04:20;;;;;;;1999.90;999.90;;;18.20;99.90;;;;;;5047954;28;20463;-72
2022/07/16 06:06:47;;;;;;;1999.90;999.90;;;18.20;99.90;;;;;;5038875;28;20521;-73
2022/07/16 06:09:14;;;;;;;1999.90;999.90;;;18.10;99.90;;;;;;5043759;28;20458;-72
2022/07/16 06:11:41;;;;;;;1999.90;999.90;;;18.10;99.90;;;;;;5044189;28;20465;-70
2022/07/16 06:14:08;;;;;;;1999.90;999.90;;;18.00;99.90;;;;;;5048216;28;21226;-73
2022/07/16 06:16:35;;;;;;;1999.90;999.90;;;17.60;99.90;;;;;;5049138;28;20998;-73
2022/07/16 06:19:02;;;;;;;1999.90;999.90;;;17.30;99.90;;;;;;5048295;28;20482;-73
2022/07/16 06:21:29;;;;;;;1999.90;999.90;;;17.20;99.90;;;;;;5046918;28;20516;-72
2022/07/16 06:23:55;;;;;;;1999.90;999.90;;;17.00;99.90;;;;;;5047327;28;20466;-73
2022/07/16 06:26:22;;;;;;;1999.90;999.90;;;16.80;99.90;;;;;;5049470;28;20482;-73
2022/07/16 06:28:48;;;;;;;1999.90;999.90;;;16.70;99.90;;;;;;5048230;28;21028;-72
2022/07/16 06:31:15;;;;;;;1999.90;999.90;;;16.60;99.90;;;;;;5049788;28;20458;-72
2022/07/16 06:33:43;;;;;;;1999.90;999.90;;;16.40;99.90;;;;;;5049261;28;20501;-71
2022/07/16 06:36:09;;;;;;;1999.90;999.90;;;16.30;99.90;;;;;;5049084;28;20531;-74
2022/07/16 06:38:36;;;;;;;1999.90;999.90;;;16.00;99.90;;;;;;5048726;28;20551;-74
2022/07/16 06:41:03;;;;;;;1999.90;999.90;;;15.90;99.90;;;;;;5048599;28;20455;-74
2022/07/16 06:43:29;;;;;;;1999.90;999.90;;;15.80;99.90;;;;;;5049215;28;20489;-75
2022/07/16 06:45:56;;;;;;;1999.90;999.90;;;15.40;99.90;;;;;;5049372;28;20535;-73
2022/07/16 06:48:23;;;;;;;1999.90;999.90;;;15.80;99.90;;;;;;5050983;28;20458;-71
2022/07/16 06:50:51;;;;;;;1999.90;999.90;;;15.80;99.90;;;;;;5052046;28;20460;-72
2022/07/16 06:53:17;;;;;;;1999.90;999.90;;;15.70;99.90;;;;;;5047890;28;20470;-73
2022/07/16 06:55:44;;;;;;;1999.90;999.90;;;15.70;99.90;;;;;;5048305;28;20519;-72
2022/07/16 06:58:10;;;;;;;1999.90;999.90;;;15.70;99.90;;;;;;5044514;28;20490;-73
2022/07/16 07:00:37;;;;;;;1999.90;999.90;;;15.90;99.90;;;;;;5043684;28;20878;-73
2022/07/16 07:03:04;;;;;;;1999.90;999.90;;;16.00;99.90;;;;;;5048276;28;20524;-73
2022/07/16 07:05:30;;;;;;;1999.90;999.90;;;16.00;99.90;;;;;;5047285;28;20458;-71
2022/07/16 07:07:58;;;;;;;1999.90;999.90;;;16.10;99.90;;;;;;5049370;28;20486;-73
2022/07/16 07:10:25;;;;;;;1999.90;999.90;;;16.20;99.90;;;;;;5044229;28;20535;-73
2022/07/16 07:12:52;;;;;;;1999.90;999.90;;;16.20;99.90;;;;;;5045816;28;20516;-74
2022/07/16 07:15:19;;;;;;;1999.90;999.90;;;16.20;99.90;;;;;;5047547;28;20470;-73
2022/07/16 07:17:46;;;;;;;1999.90;999.90;;;16.20;99.90;;;;;;5040126;28;20497;-73
2022/07/16 07:20:12;;;;;;;1999.90;999.90;;;16.10;99.90;;;;;;5049627;28;20458;-73
2022/07/16 07:22:39;;;;;;;1999.90;999.90;;;16.00;99.90;;;;;;5048995;28;20462;-73
2022/07/16 07:25:09;;;;;;;1999.90;999.90;;;16.00;99.90;;;;;;5047476;28;20516;-72
2022/07/16 07:27:36;;;;;;;1999.90;999.90;;;16.10;99.90;;;;;;5049090;28;20474;-70
2022/07/16 07:30:03;;;;;;;1999.90;999.90;;;15.90;99.90;;;;;;5047874;28;20556;-73
2022/07/16 07:32:29;;;;;;;1999.90;999.90;;;15.80;99.90;;;;;;5051993;28;20539;-73
2022/07/16 07:34:56;;;;;;;1999.90;999.90;;;15.90;99.90;;;;;;5052284;28;20462;-71
2022/07/16 07:37:22;;;;;;;1999.90;999.90;;;16.00;99.90;;;;;;5050230;28;20478;-72
2022/07/16 07:39:49;;;;;;;1999.90;999.90;;;16.20;99.90;;;;;;5051446;28;20470;-72
2022/07/16 07:42:17;;;;;;;1999.90;999.90;;;16.40;99.90;;;;;;5051578;28;20543;-73
2022/07/16 07:44:44;;;;;;;1999.90;999.90;;;16.50;99.90;;;;;;5049976;28;20966;-72
2022/07/16 07:47:11;;;;;;;1999.90;999.90;;;16.70;99.90;;;;;;5046744;28;20478;-72
2022/07/16 07:49:37;;;;;;;1999.90;999.90;;;16.90;99.90;;;;;;5051643;28;20466;-72
2022/07/16 07:52:04;;;;;;;1999.90;999.90;;;17.10;99.90;;;;;;5049122;28;20509;-72
2022/07/16 07:54:31;;;;;;;1999.90;999.90;;;17.20;99.90;;;;;;5050868;28;20469;-73
2022/07/16 07:56:57;;;;;;;1999.90;999.90;;;17.30;99.90;;;;;;5049466;28;20539;-70
2022/07/16 07:59:25;;;;;;;1999.90;999.90;;;17.10;99.90;;;;;;5051655;28;20520;-73
2022/07/16 08:01:52;;;;;;;1999.90;999.90;;;17.10;99.90;;;;;;5050347;28;20462;-73
2022/07/16 08:04:19;;;;;;;1999.90;999.90;;;17.20;99.90;;;;;;5043135;28;20458;-72
2022/07/16 08:06:46;;;;;;;1999.90;999.90;;;17.20;99.90;;;;;;5049535;28;20516;-73
2022/07/16 08:09:12;;;;;;;1999.90;999.90;;;17.10;99.90;;;;;;5051637;28;20508;-73
2022/07/16 08:11:39;;;;;;;1999.90;999.90;;;17.10;99.90;;;;;;5048074;28;20467;-74
2022/07/16 08:14:05;;;;;;;1999.90;999.90;;;16.90;99.90;;;;;;5052983;28;20458;-73
2022/07/16 08:16:33;;;;;;;1999.90;999.90;;;17.50;99.90;;;;;;5053313;28;20486;-73
2022/07/16 08:19:00;;;;;;;1999.90;999.90;;;17.90;99.90;;;;;;5053560;28;20540;-73
2022/07/16 08:21:27;;;;;;;1999.90;999.90;;;18.40;99.90;;;;;;5051879;28;20462;-73
2022/07/16 08:26:39;;;;;;;1999.90;999.90;;;18.70;99.90;;;;;;5049980;28;20477;-72
2022/07/16 08:29:05;;;;;;;1999.90;999.90;;;18.90;99.90;;;;;;5050878;28;20461;-73
2022/07/16 08:31:33;;;;;;;1999.90;999.90;;;19.10;99.90;;;;;;5052829;28;20470;-73
2022/07/16 08:34:00;;;;;;;1999.90;999.90;;;19.10;99.90;;;;;;5053248;28;20459;-73
2022/07/16 08:36:26;;;;;;;1999.90;999.90;;;19.00;99.90;;;;;;5054848;28;20470;-73
2022/07/16 08:38:53;;;;;;;1999.90;999.90;;;19.20;99.90;;;;;;5055037;28;20508;-72
2022/07/16 08:41:21;;;;;;;1999.90;999.90;;;19.50;99.90;;;;;;5056255;28;20446;-74
2022/07/16 08:43:49;;;;;;;1999.90;999.90;;;19.80;99.90;;;;;;5055184;28;20499;-76
2022/07/16 08:46:20;;;;;;;1999.90;999.90;;;20.00;99.90;;;;;;5055677;28;20606;-74
2022/07/16 08:48:48;;;;;;;1999.90;999.90;;;20.00;99.90;;;;;;5052385;28;20516;-75
2022/07/16 08:51:20;;;;;;;1999.90;999.90;;;19.60;99.90;;;;;;5053175;28;20442;-75
2022/07/16 08:53:48;;;;;;;1999.90;999.90;;;19.60;99.90;;;;;;5051539;28;20450;-75
2022/07/16 08:56:16;;;;;;;1999.90;999.90;;;19.80;99.90;;;;;;5052642;28;20523;-75
2022/07/16 08:58:43;;;;;;;1999.90;999.90;;;19.90;99.90;;;;;;5052703;28;20481;-75
2022/07/16 09:01:11;;;;;;;1999.90;999.90;;;19.60;99.90;;;;;;5052028;28;20982;-75
2022/07/16 09:03:38;;;;;;;1999.90;999.90;;;19.50;99.90;;;;;;5049326;28;20527;-74
2022/07/16 09:06:06;;;;;;;1999.90;999.90;;;19.70;99.90;;;;;;5048935;28;20532;-75
2022/07/16 09:08:32;;;;;;;1999.90;999.90;;;19.60;99.90;;;;;;5052649;28;20447;-74
2022/07/16 09:11:17;;;;;;;1999.90;999.90;;;19.50;99.90;;;;;;5050772;28;20474;-73
2022/07/16 09:14:00;;;;;;;1999.90;999.90;;;19.70;99.90;;;;;;5046064;28;20966;-74
2022/07/16 09:16:31;;;;;;;1999.90;999.90;;;19.80;99.90;;;;;;5050841;28;20492;-74
2022/07/16 09:19:05;;;;;;;1999.90;999.90;;;20.30;99.90;;;;;;5052797;28;20524;-75
2022/07/16 09:21:34;;;;;;;1999.90;999.90;;;20.60;99.90;;;;;;5049954;28;20996;-74
2022/07/16 09:24:00;;;;;;;1999.90;999.90;;;20.80;99.90;;;;;;5051538;28;20467;-75
2022/07/16 09:26:28;;;;;;;1999.90;999.90;;;20.80;99.90;;;;;;5051143;28;20477;-75
2022/07/16 09:28:55;;;;;;;1999.90;999.90;;;20.80;99.90;;;;;;5048594;28;20489;-75
2022/07/16 09:31:37;;;;;;;1999.90;999.90;;;20.50;99.90;;;;;;5052280;28;20442;-75
2022/07/16 09:34:07;;;;;;;1999.90;999.90;;;20.10;99.90;;;;;;5052471;28;20500;-75
2022/07/16 09:36:35;;;;;;;1999.90;999.90;;;20.00;99.90;;;;;;5051213;28;20481;-75
2022/07/16 09:39:03;;;;;;;1999.90;999.90;;;20.10;99.90;;;;;;5051160;28;20986;-75
2022/07/16 09:41:41;;;;;;;1999.90;999.90;;;20.20;99.90;;;;;;5052459;28;20451;-74
2022/07/16 09:44:16;;;;;;;1999.90;999.90;;;20.20;99.90;;;;;;5052370;28;20435;-74
2022/07/16 09:47:01;;;;;;;1999.90;999.90;;;20.00;99.90;;;;;;5046682;28;20489;-75
2022/07/16 09:49:28;;;;;;;1999.90;999.90;;;19.90;99.90;;;;;;5043623;28;20531;-75
2022/07/16 09:51:56;;;;;;;1999.90;999.90;;;19.70;99.90;;;;;;5048395;28;20511;-74
2022/07/16 09:54:31;;;;;;;1999.90;999.90;;;20.00;99.90;;;;;;5047693;28;20521;-75
2022/07/16 09:57:11;;;;;;;1999.90;999.90;;;20.60;99.90;;;;;;5047053;28;20496;-73
2022/07/16 09:59:39;;;;;;;1999.90;999.90;;;20.90;99.90;;;;;;5047951;28;21097;-75
2022/07/16 10:02:06;;;;;;;1999.90;999.90;;;20.70;99.90;;;;;;5051998;28;20451;-74
2022/07/16 10:04:33;;;;;;;1999.90;999.90;;;20.70;99.90;;;;;;5051256;28;20492;-73
2022/07/16 10:07:00;;;;;;;1999.90;999.90;;;20.90;99.90;;;;;;5051790;28;20523;-74
2022/07/16 10:09:28;;;;;;;1999.90;999.90;;;21.20;99.30;;;;;;5047070;28;20516;-70
2022/07/16 10:11:57;;;;;;;1999.90;999.90;;;21.70;98.40;;;;;;5043988;28;20467;-72
2022/07/16 10:14:24;;;;;;;1999.90;999.90;;;22.10;97.20;;;;;;5049286;28;20469;-72
2022/07/16 10:16:51;;;;;;;1999.90;999.90;;;22.20;96.30;;;;;;5046791;28;20482;-73
2022/07/16 10:19:17;;;;;;;1999.90;999.90;;;22.20;95.50;;;;;;5045303;28;21080;-73
2022/07/16 10:22:17;;;;;;;1999.90;999.90;;;22.20;96.40;;;;;;5048657;28;20473;-72
2022/07/16 10:24:46;;;;;;;1999.90;999.90;;;22.30;95.90;;;;;;5047391;28;20838;-73
2022/07/16 10:27:22;;;;;;;1999.90;999.90;;;22.60;95.00;;;;;;5049644;28;20474;-71
2022/07/16 10:29:49;;;;;;;1999.90;999.90;;;22.30;94.50;;;;;;5049011;28;20484;-74
2022/07/16 10:32:28;;;;;;;1999.90;999.90;;;21.60;95.10;;;;;;5046434;28;20884;-74
2022/07/16 10:34:55;;;;;;;1999.90;999.90;;;21.20;95.40;;;;;;5041766;28;20458;-74
2022/07/16 10:37:30;;;;;;;1999.90;999.90;;;21.00;96.20;;;;;;5049024;28;20993;-74
2022/07/16 10:40:03;;;;;;;1999.90;999.90;;;21.00;96.50;;;;;;5048321;28;20487;-73
2022/07/16 10:42:31;;;;;;;1999.90;999.90;;;21.30;96.80;;;;;;5048666;28;20473;-74
2022/07/16 10:44:57;;;;;;;1999.90;999.90;;;21.50;96.10;;;;;;5048997;28;20563;-75
2022/07/16 10:47:47;;;;;;;1999.90;999.90;;;21.60;96.30;;;;;;5047871;28;20490;-75
2022/07/16 10:50:16;;;;;;;1999.90;999.90;;;21.50;96.30;;;;;;5048911;28;20500;-74
2022/07/16 10:52:47;;;;;;;1999.90;999.90;;;21.00;97.00;;;;;;5043942;28;20463;-74
2022/07/16 10:55:19;;;;;;;1999.90;999.90;;;20.50;98.20;;;;;;5048576;28;20871;-75
2022/07/16 10:57:46;;;;;;;1999.90;999.90;;;20.20;99.00;;;;;;5048051;28;21006;-74
2022/07/16 11:00:13;;;;;;;1999.90;999.90;;;20.10;99.20;;;;;;5048204;28;20500;-74
2022/07/16 11:02:40;;;;;;;1999.90;999.90;;;20.40;98.80;;;;;;5047236;28;20473;-75
2022/07/16 11:05:09;;;;;;;1999.90;999.90;;;20.20;98.60;;;;;;5048603;28;20492;-74
2022/07/16 11:07:37;;;;;;;1999.90;999.90;;;20.10;99.50;;;;;;5049230;28;20482;-75
2022/07/16 11:10:05;;;;;;;1999.90;999.90;;;20.30;99.60;;;;;;5049315;28;20458;-73
2022/07/16 11:12:34;;;;;;;1999.90;999.90;;;20.50;98.80;;;;;;5049466;28;21036;-75
2022/07/16 11:15:02;;;;;;;1999.90;999.90;;;20.60;97.50;;;;;;5049651;28;20886;-74
2022/07/16 11:17:30;;;;;;;1999.90;999.90;;;20.80;97.40;;;;;;5050773;28;20482;-75
2022/07/16 11:19:59;;;;;;;1999.90;999.90;;;20.70;98.40;;;;;;5055102;28;20474;-74
2022/07/16 11:22:28;;;;;;;1999.90;999.90;;;20.60;98.20;;;;;;5054528;28;20446;-75
2022/07/16 11:24:58;;;;;;;1999.90;999.90;;;20.60;98.60;;;;;;5052202;28;20469;-75
2022/07/16 11:27:29;;;;;;;1999.90;999.90;;;20.70;95.50;;;;;;5050184;28;20482;-75
2022/07/16 11:29:57;;;;;;;1999.90;999.90;;;21.00;94.50;;;;;;5051573;28;20513;-73
2022/07/16 11:32:23;;;;;;;1999.90;999.90;;;21.20;95.60;;;;;;5051220;28;20470;-74
2022/07/16 11:34:50;;;;;;;1999.90;999.90;;;21.30;94.70;;;;;;5049676;28;20508;-74
2022/07/16 11:37:16;;;;;;;1999.90;999.90;;;21.20;94.70;;;;;;5050699;28;20482;-74
2022/07/16 11:39:43;;;;;;;1999.90;999.90;;;21.00;96.00;;;;;;5050404;28;20478;-74
2022/07/16 11:42:10;;;;;;;1999.90;999.90;;;21.40;96.80;;;;;;5048971;28;20474;-74
2022/07/16 11:44:40;;;;;;;1999.90;999.90;;;21.50;96.90;;;;;;5049151;28;20474;-74
2022/07/16 11:47:09;;;;;;;1999.90;999.90;;;21.50;96.90;;;;;;5047567;28;20563;-74
2022/07/16 11:49:38;;;;;;;1999.90;999.90;;;21.40;96.00;;;;;;5050054;28;20454;-73
2022/07/16 11:52:08;;;;;;;1999.90;999.90;;;21.10;96.90;;;;;;5050661;28;20488;-75
2022/07/16 11:54:37;;;;;;;1999.90;999.90;;;21.10;97.30;;;;;;5050528;28;20463;-75
2022/07/16 11:57:03;;;;;;;1999.90;999.90;;;21.10;96.80;;;;;;5049413;28;20491;-73
2022/07/16 11:59:32;;;;;;;1999.90;999.90;;;20.90;97.00;;;;;;5049262;28;21103;-73
2022/07/16 12:02:03;;;;;;;1999.90;999.90;;;21.20;97.30;;;;;;5071590;22;20498;-69
2022/07/16 12:04:35;;;;;;;1999.90;999.90;;;21.30;96.40;;;;;;5048834;28;20458;-70
2022/07/16 12:07:01;;;;;;;1999.90;999.90;;;21.30;96.40;;;;;;5049876;28;20462;-69
2022/07/16 12:09:32;;;;;;;1999.90;999.90;;;21.30;96.20;;;;;;5048429;28;20454;-69